sensor_id;sensor_type;location;lat;lon;timestamp;pressure;altitude;pressure_sealevel;temperature;humidity
56894;BME280;43392;50.078;13.704;2023-04-26T00:01:55;96799.53;;;3.11;67.57
56894;BME280;43392;50.078;13.704;2023-04-26T00:04:22;96794.22;;;3.11;67.66
56894;BME280;43392;50.078;13.704;2023-04-26T00:06:49;96784.78;;;3.15;67.68
56894;BME280;43392;50.078;13.704;2023-04-26T00:09:16;96785.38;;;3.17;67.54
56894;BME280;43392;50.078;13.704;2023-04-26T00:11:43;96792.72;;;3.15;67.40
56894;BME280;43392;50.078;13.704;2023-04-26T00:14:11;96793.09;;;3.07;67.47
56894;BME280;43392;50.078;13.704;2023-04-26T00:16:38;96800.47;;;3.05;67.83
56894;BME280;43392;50.078;13.704;2023-04-26T00:19:05;96797.34;;;2.96;68.25
56894;BME280;43392;50.078;13.704;2023-04-26T00:21:31;96793.78;;;2.91;68.19
56894;BME280;43392;50.078;13.704;2023-04-26T00:23:58;96795.84;;;2.89;68.49
56894;BME280;43392;50.078;13.704;2023-04-26T00:26:24;96798.28;;;2.90;68.67
56894;BME280;43392;50.078;13.704;2023-04-26T00:28:51;96799.44;;;2.94;68.83
56894;BME280;43392;50.078;13.704;2023-04-26T00:31:19;96803.81;;;3.00;69.03
56894;BME280;43392;50.078;13.704;2023-04-26T00:33:45;96799.09;;;3.02;68.72
56894;BME280;43392;50.078;13.704;2023-04-26T00:36:12;96803.13;;;3.05;68.61
56894;BME280;43392;50.078;13.704;2023-04-26T00:38:41;96810.81;;;3.06;68.66
56894;BME280;43392;50.078;13.704;2023-04-26T00:41:07;96797.94;;;3.10;68.45
56894;BME280;43392;50.078;13.704;2023-04-26T00:43:34;96801.16;;;3.12;68.43
56894;BME280;43392;50.078;13.704;2023-04-26T00:46:01;96807.34;;;3.06;68.53
56894;BME280;43392;50.078;13.704;2023-04-26T00:48:29;96804.84;;;2.99;68.79
56894;BME280;43392;50.078;13.704;2023-04-26T00:50:56;96806.69;;;2.99;68.89
56894;BME280;43392;50.078;13.704;2023-04-26T00:53:22;96810.38;;;2.98;69.10
56894;BME280;43392;50.078;13.704;2023-04-26T00:55:49;96810.94;;;3.00;68.99
56894;BME280;43392;50.078;13.704;2023-04-26T00:58:16;96806.22;;;3.02;69.17
56894;BME280;43392;50.078;13.704;2023-04-26T01:00:43;96803.81;;;3.00;69.07
56894;BME280;43392;50.078;13.704;2023-04-26T01:03:10;96808.63;;;2.92;68.79
56894;BME280;43392;50.078;13.704;2023-04-26T01:05:38;96807.38;;;2.83;69.36
56894;BME280;43392;50.078;13.704;2023-04-26T01:08:05;96806.31;;;2.72;69.81
56894;BME280;43392;50.078;13.704;2023-04-26T01:10:33;96810.13;;;2.64;70.18
56894;BME280;43392;50.078;13.704;2023-04-26T01:13:00;96819.69;;;2.65;70.12
56894;BME280;43392;50.078;13.704;2023-04-26T01:15:27;96818.19;;;2.69;70.15
56894;BME280;43392;50.078;13.704;2023-04-26T01:17:55;96808.03;;;2.66;69.92
56894;BME280;43392;50.078;13.704;2023-04-26T01:20:21;96818.75;;;2.72;70.09
56894;BME280;43392;50.078;13.704;2023-04-26T01:22:49;96816.47;;;2.75;70.17
56894;BME280;43392;50.078;13.704;2023-04-26T01:25:17;96800.09;;;2.66;70.36
56894;BME280;43392;50.078;13.704;2023-04-26T01:27:44;96813.38;;;2.78;70.43
56894;BME280;43392;50.078;13.704;2023-04-26T01:30:11;96812.69;;;2.83;71.02
56894;BME280;43392;50.078;13.704;2023-04-26T01:32:38;96810.97;;;2.88;71.21
56894;BME280;43392;50.078;13.704;2023-04-26T01:35:05;96819.22;;;2.92;70.99
56894;BME280;43392;50.078;13.704;2023-04-26T01:37:32;96820.03;;;2.92;70.68
56894;BME280;43392;50.078;13.704;2023-04-26T01:40:00;96811.53;;;2.90;70.78
56894;BME280;43392;50.078;13.704;2023-04-26T01:42:27;96816.13;;;2.83;70.66
56894;BME280;43392;50.078;13.704;2023-04-26T01:44:53;96824.28;;;2.70;70.89
56894;BME280;43392;50.078;13.704;2023-04-26T01:47:20;96819.19;;;2.57;71.10
56894;BME280;43392;50.078;13.704;2023-04-26T01:49:46;96822.19;;;2.49;71.46
56894;BME280;43392;50.078;13.704;2023-04-26T01:52:13;96822.75;;;2.39;71.76
56894;BME280;43392;50.078;13.704;2023-04-26T01:54:41;96822.25;;;2.31;71.95
56894;BME280;43392;50.078;13.704;2023-04-26T01:57:08;96826.84;;;2.24;72.51
56894;BME280;43392;50.078;13.704;2023-04-26T01:59:35;96831.44;;;2.17;73.13
56894;BME280;43392;50.078;13.704;2023-04-26T02:02:02;96826.00;;;2.12;73.25
56894;BME280;43392;50.078;13.704;2023-04-26T02:04:28;96822.19;;;2.08;73.33
56894;BME280;43392;50.078;13.704;2023-04-26T02:06:55;96819.91;;;2.11;73.45
56894;BME280;43392;50.078;13.704;2023-04-26T02:09:22;96824.97;;;2.13;73.38
56894;BME280;43392;50.078;13.704;2023-04-26T02:11:49;96824.31;;;2.17;73.64
56894;BME280;43392;50.078;13.704;2023-04-26T02:14:16;96816.84;;;2.26;73.77
56894;BME280;43392;50.078;13.704;2023-04-26T02:16:44;96819.97;;;2.34;73.61
56894;BME280;43392;50.078;13.704;2023-04-26T02:19:11;96816.97;;;2.42;73.37
56894;BME280;43392;50.078;13.704;2023-04-26T02:21:51;96827.00;;;2.52;73.28
56894;BME280;43392;50.078;13.704;2023-04-26T02:24:18;96829.34;;;2.60;72.83
56894;BME280;43392;50.078;13.704;2023-04-26T02:26:45;96827.19;;;2.68;72.89
56894;BME280;43392;50.078;13.704;2023-04-26T02:29:12;96820.94;;;2.75;72.41
56894;BME280;43392;50.078;13.704;2023-04-26T02:31:40;96820.03;;;2.81;72.22
56894;BME280;43392;50.078;13.704;2023-04-26T02:34:07;96830.63;;;2.81;72.23
56894;BME280;43392;50.078;13.704;2023-04-26T02:36:33;96833.16;;;2.76;72.38
56894;BME280;43392;50.078;13.704;2023-04-26T02:39:00;96828.06;;;2.74;72.64
56894;BME280;43392;50.078;13.704;2023-04-26T02:41:27;96821.31;;;2.78;72.77
56894;BME280;43392;50.078;13.704;2023-04-26T02:43:54;96822.22;;;2.84;72.67
56894;BME280;43392;50.078;13.704;2023-04-26T02:46:20;96824.41;;;2.87;72.65
56894;BME280;43392;50.078;13.704;2023-04-26T02:48:48;96824.97;;;2.89;72.56
56894;BME280;43392;50.078;13.704;2023-04-26T02:51:15;96821.75;;;2.75;72.67
56894;BME280;43392;50.078;13.704;2023-04-26T02:53:41;96830.03;;;2.67;73.39
56894;BME280;43392;50.078;13.704;2023-04-26T02:56:08;96829.69;;;2.63;73.52
56894;BME280;43392;50.078;13.704;2023-04-26T02:58:35;96828.88;;;2.63;73.92
56894;BME280;43392;50.078;13.704;2023-04-26T03:01:02;96827.25;;;2.62;74.16
56894;BME280;43392;50.078;13.704;2023-04-26T03:03:29;96826.94;;;2.58;74.11
56894;BME280;43392;50.078;13.704;2023-04-26T03:05:57;96823.72;;;2.56;74.39
56894;BME280;43392;50.078;13.704;2023-04-26T03:08:24;96819.56;;;2.49;74.44
56894;BME280;43392;50.078;13.704;2023-04-26T03:10:50;96829.09;;;2.50;74.66
56894;BME280;43392;50.078;13.704;2023-04-26T03:13:17;96819.56;;;2.49;74.83
56894;BME280;43392;50.078;13.704;2023-04-26T03:15:44;96827.25;;;2.50;74.99
56894;BME280;43392;50.078;13.704;2023-04-26T03:18:11;96826.44;;;2.50;75.23
56894;BME280;43392;50.078;13.704;2023-04-26T03:20:37;96825.88;;;2.48;75.16
56894;BME280;43392;50.078;13.704;2023-04-26T03:23:05;96835.44;;;2.49;75.15
56894;BME280;43392;50.078;13.704;2023-04-26T03:25:32;96829.56;;;2.47;75.42
56894;BME280;43392;50.078;13.704;2023-04-26T03:27:59;96830.94;;;2.49;75.47
56894;BME280;43392;50.078;13.704;2023-04-26T03:30:25;96831.53;;;2.51;75.35
56894;BME280;43392;50.078;13.704;2023-04-26T03:32:52;96837.59;;;2.52;75.69
56894;BME280;43392;50.078;13.704;2023-04-26T03:35:19;96833.34;;;2.51;75.89
56894;BME280;43392;50.078;13.704;2023-04-26T03:37:45;96835.06;;;2.45;75.91
56894;BME280;43392;50.078;13.704;2023-04-26T03:40:13;96837.56;;;2.40;76.46
56894;BME280;43392;50.078;13.704;2023-04-26T03:42:41;96847.81;;;2.37;77.09
56894;BME280;43392;50.078;13.704;2023-04-26T03:45:08;96854.94;;;2.36;77.44
56894;BME280;43392;50.078;13.704;2023-04-26T03:47:35;96844.81;;;2.33;77.17
56894;BME280;43392;50.078;13.704;2023-04-26T03:50:01;96854.94;;;2.36;77.65
56894;BME280;43392;50.078;13.704;2023-04-26T03:52:28;96852.06;;;2.38;77.79
56894;BME280;43392;50.078;13.704;2023-04-26T03:54:55;96847.16;;;2.41;77.77
56894;BME280;43392;50.078;13.704;2023-04-26T03:57:23;96851.50;;;2.47;77.98
56894;BME280;43392;50.078;13.704;2023-04-26T03:59:49;96851.06;;;2.50;77.84
56894;BME280;43392;50.078;13.704;2023-04-26T04:02:16;96846.91;;;2.54;78.10
56894;BME280;43392;50.078;13.704;2023-04-26T04:04:43;96851.78;;;2.57;77.90
56894;BME280;43392;50.078;13.704;2023-04-26T04:07:09;96847.06;;;2.59;78.01
56894;BME280;43392;50.078;13.704;2023-04-26T04:09:36;96850.19;;;2.56;77.69
56894;BME280;43392;50.078;13.704;2023-04-26T04:12:03;96840.47;;;2.50;78.02
56894;BME280;43392;50.078;13.704;2023-04-26T04:14:30;96854.28;;;2.52;77.95
56894;BME280;43392;50.078;13.704;2023-04-26T04:16:57;96850.19;;;2.56;77.94
56894;BME280;43392;50.078;13.704;2023-04-26T04:19:25;96849.69;;;2.59;78.06
56894;BME280;43392;50.078;13.704;2023-04-26T04:21:51;96852.59;;;2.58;77.62
56894;BME280;43392;50.078;13.704;2023-04-26T04:24:18;96855.69;;;2.55;77.39
56894;BME280;43392;50.078;13.704;2023-04-26T04:26:45;96857.03;;;2.46;77.52
56894;BME280;43392;50.078;13.704;2023-04-26T04:29:12;96861.41;;;2.40;77.77
56894;BME280;43392;50.078;13.704;2023-04-26T04:31:40;96859.56;;;2.41;78.07
56894;BME280;43392;50.078;13.704;2023-04-26T04:34:06;96860.59;;;2.40;77.78
56894;BME280;43392;50.078;13.704;2023-04-26T04:36:34;96864.84;;;2.41;77.67
56894;BME280;43392;50.078;13.704;2023-04-26T04:39:00;96864.63;;;2.42;77.70
56894;BME280;43392;50.078;13.704;2023-04-26T04:41:28;96865.81;;;2.46;78.12
56894;BME280;43392;50.078;13.704;2023-04-26T04:43:54;96869.47;;;2.45;77.65
56894;BME280;43392;50.078;13.704;2023-04-26T04:46:21;96872.25;;;2.50;77.80
56894;BME280;43392;50.078;13.704;2023-04-26T04:48:50;96869.34;;;2.52;77.77
56894;BME280;43392;50.078;13.704;2023-04-26T04:51:17;96882.06;;;2.61;77.76
56894;BME280;43392;50.078;13.704;2023-04-26T04:53:44;96876.41;;;2.69;77.72
56894;BME280;43392;50.078;13.704;2023-04-26T04:56:10;96881.41;;;2.78;77.35
56894;BME280;43392;50.078;13.704;2023-04-26T04:58:37;96879.44;;;2.85;77.23
56894;BME280;43392;50.078;13.704;2023-04-26T05:01:04;96882.56;;;2.93;76.52
56894;BME280;43392;50.078;13.704;2023-04-26T05:03:30;96889.34;;;3.01;76.59
56894;BME280;43392;50.078;13.704;2023-04-26T05:06:00;96883.97;;;3.19;76.82
56894;BME280;43392;50.078;13.704;2023-04-26T05:08:27;96881.28;;;3.42;76.20
56894;BME280;43392;50.078;13.704;2023-04-26T05:10:53;96882.88;;;3.66;75.49
56894;BME280;43392;50.078;13.704;2023-04-26T05:13:20;96881.81;;;3.79;74.07
56894;BME280;43392;50.078;13.704;2023-04-26T05:15:47;96886.72;;;4.27;85.20
56894;BME280;43392;50.078;13.704;2023-04-26T05:18:14;96892.06;;;5.38;74.25
56894;BME280;43392;50.078;13.704;2023-04-26T05:20:40;96893.22;;;5.25;70.11
56894;BME280;43392;50.078;13.704;2023-04-26T05:23:08;96887.81;;;4.87;70.51
56894;BME280;43392;50.078;13.704;2023-04-26T05:25:36;96892.16;;;4.77;71.27
56894;BME280;43392;50.078;13.704;2023-04-26T05:28:02;96888.03;;;4.69;71.38
56894;BME280;43392;50.078;13.704;2023-04-26T05:30:29;96884.00;;;4.66;70.93
56894;BME280;43392;50.078;13.704;2023-04-26T05:32:56;96892.22;;;4.65;70.85
56894;BME280;43392;50.078;13.704;2023-04-26T05:35:22;96898.22;;;4.60;70.85
56894;BME280;43392;50.078;13.704;2023-04-26T05:37:49;96900.41;;;4.63;71.11
56894;BME280;43392;50.078;13.704;2023-04-26T05:40:17;96913.53;;;4.70;70.59
56894;BME280;43392;50.078;13.704;2023-04-26T05:42:44;96917.00;;;4.70;70.04
56894;BME280;43392;50.078;13.704;2023-04-26T05:45:10;96922.88;;;4.72;69.82
56894;BME280;43392;50.078;13.704;2023-04-26T05:47:37;96921.94;;;4.79;70.35
56894;BME280;43392;50.078;13.704;2023-04-26T05:50:05;96927.56;;;4.82;70.36
56894;BME280;43392;50.078;13.704;2023-04-26T05:52:32;96929.28;;;4.88;70.13
56894;BME280;43392;50.078;13.704;2023-04-26T05:54:59;96932.59;;;4.95;69.14
56894;BME280;43392;50.078;13.704;2023-04-26T05:57:28;96933.31;;;4.91;69.55
56894;BME280;43392;50.078;13.704;2023-04-26T05:59:55;96927.75;;;4.92;68.61
56894;BME280;43392;50.078;13.704;2023-04-26T06:02:22;96927.81;;;4.97;69.22
56894;BME280;43392;50.078;13.704;2023-04-26T06:04:48;96931.31;;;4.98;68.33
56894;BME280;43392;50.078;13.704;2023-04-26T06:07:15;96936.22;;;5.06;68.98
56894;BME280;43392;50.078;13.704;2023-04-26T06:09:42;96933.50;;;5.17;68.64
56894;BME280;43392;50.078;13.704;2023-04-26T06:12:09;96941.28;;;5.24;67.38
56894;BME280;43392;50.078;13.704;2023-04-26T06:14:37;96930.44;;;5.25;67.94
56894;BME280;43392;50.078;13.704;2023-04-26T06:17:03;96935.81;;;5.14;68.04
56894;BME280;43392;50.078;13.704;2023-04-26T06:19:30;96936.88;;;5.13;68.26
56894;BME280;43392;50.078;13.704;2023-04-26T06:21:56;96938.16;;;5.10;68.45
56894;BME280;43392;50.078;13.704;2023-04-26T06:24:24;96944.50;;;5.09;67.86
56894;BME280;43392;50.078;13.704;2023-04-26T06:26:50;96942.56;;;5.05;68.18
56894;BME280;43392;50.078;13.704;2023-04-26T06:29:17;96941.63;;;5.11;66.73
56894;BME280;43392;50.078;13.704;2023-04-26T06:31:45;96941.06;;;5.25;67.29
56894;BME280;43392;50.078;13.704;2023-04-26T06:34:12;96946.53;;;5.52;67.19
56894;BME280;43392;50.078;13.704;2023-04-26T06:36:38;96949.66;;;5.66;65.54
56894;BME280;43392;50.078;13.704;2023-04-26T06:39:05;96946.81;;;5.72;64.67
56894;BME280;43392;50.078;13.704;2023-04-26T06:41:32;96940.00;;;5.81;64.65
56894;BME280;43392;50.078;13.704;2023-04-26T06:43:58;96948.50;;;5.95;64.50
56894;BME280;43392;50.078;13.704;2023-04-26T06:46:25;96951.56;;;5.87;63.35
56894;BME280;43392;50.078;13.704;2023-04-26T06:48:53;96953.06;;;5.99;62.71
56894;BME280;43392;50.078;13.704;2023-04-26T06:51:20;96953.41;;;5.86;63.90
56894;BME280;43392;50.078;13.704;2023-04-26T06:53:47;96960.66;;;6.08;63.84
56894;BME280;43392;50.078;13.704;2023-04-26T06:56:14;96945.91;;;6.00;64.02
56894;BME280;43392;50.078;13.704;2023-04-26T06:58:57;96954.88;;;6.37;63.78
56894;BME280;43392;50.078;13.704;2023-04-26T07:01:24;96960.66;;;6.08;62.60
56894;BME280;43392;50.078;13.704;2023-04-26T07:03:50;96958.25;;;5.73;63.94
56894;BME280;43392;50.078;13.704;2023-04-26T07:06:18;96959.56;;;5.54;64.25
56894;BME280;43392;50.078;13.704;2023-04-26T07:08:45;96952.91;;;5.34;65.96
56894;BME280;43392;50.078;13.704;2023-04-26T07:11:12;96955.66;;;5.23;65.37
56894;BME280;43392;50.078;13.704;2023-04-26T07:13:38;96957.41;;;5.17;65.44
56894;BME280;43392;50.078;13.704;2023-04-26T07:16:05;96959.09;;;5.23;66.23
56894;BME280;43392;50.078;13.704;2023-04-26T07:18:32;96954.38;;;5.25;65.91
56894;BME280;43392;50.078;13.704;2023-04-26T07:20:58;96970.94;;;5.16;66.29
56894;BME280;43392;50.078;13.704;2023-04-26T07:23:28;96970.34;;;5.14;67.66
56894;BME280;43392;50.078;13.704;2023-04-26T07:25:54;96970.31;;;5.25;67.88
56894;BME280;43392;50.078;13.704;2023-04-26T07:28:21;96962.38;;;5.30;67.13
56894;BME280;43392;50.078;13.704;2023-04-26T07:30:47;96961.44;;;5.36;68.06
56894;BME280;43392;50.078;13.704;2023-04-26T07:33:14;96957.16;;;5.52;66.91
56894;BME280;43392;50.078;13.704;2023-04-26T07:35:42;96970.56;;;5.79;67.30
56894;BME280;43392;50.078;13.704;2023-04-26T07:38:09;96969.88;;;6.22;66.59
56894;BME280;43392;50.078;13.704;2023-04-26T07:40:37;96966.22;;;6.28;65.51
56894;BME280;43392;50.078;13.704;2023-04-26T07:43:04;96976.06;;;6.27;65.75
56894;BME280;43392;50.078;13.704;2023-04-26T07:45:31;96964.53;;;6.00;65.48
56894;BME280;43392;50.078;13.704;2023-04-26T07:47:57;96963.47;;;6.01;65.78
56894;BME280;43392;50.078;13.704;2023-04-26T07:50:24;96966.34;;;6.16;65.90
56894;BME280;43392;50.078;13.704;2023-04-26T07:52:51;96971.97;;;6.20;64.87
56894;BME280;43392;50.078;13.704;2023-04-26T07:55:17;96967.25;;;6.05;64.50
56894;BME280;43392;50.078;13.704;2023-04-26T07:57:45;96969.38;;;6.03;65.26
56894;BME280;43392;50.078;13.704;2023-04-26T08:00:13;96966.75;;;6.08;61.85
56894;BME280;43392;50.078;13.704;2023-04-26T08:02:41;96964.78;;;6.20;58.95
56894;BME280;43392;50.078;13.704;2023-04-26T08:05:08;96963.53;;;6.06;58.46
56894;BME280;43392;50.078;13.704;2023-04-26T08:07:34;96973.56;;;5.99;60.13
56894;BME280;43392;50.078;13.704;2023-04-26T08:10:01;96976.16;;;5.94;59.79
56894;BME280;43392;50.078;13.704;2023-04-26T08:12:27;96978.56;;;5.79;61.02
56894;BME280;43392;50.078;13.704;2023-04-26T08:14:55;96976.97;;;5.78;59.49
56894;BME280;43392;50.078;13.704;2023-04-26T08:17:22;96980.66;;;5.77;60.62
56894;BME280;43392;50.078;13.704;2023-04-26T08:19:49;96971.34;;;5.91;60.58
56894;BME280;43392;50.078;13.704;2023-04-26T08:22:15;96985.28;;;5.98;59.02
56894;BME280;43392;50.078;13.704;2023-04-26T08:24:46;96976.44;;;6.14;56.85
56894;BME280;43392;50.078;13.704;2023-04-26T08:27:13;96983.06;;;6.55;55.24
56894;BME280;43392;50.078;13.704;2023-04-26T08:29:40;96977.53;;;6.88;55.25
56894;BME280;43392;50.078;13.704;2023-04-26T08:32:08;96973.28;;;7.14;53.16
56894;BME280;43392;50.078;13.704;2023-04-26T08:34:35;96981.38;;;6.97;54.44
56894;BME280;43392;50.078;13.704;2023-04-26T08:37:01;96983.84;;;6.77;54.61
56894;BME280;43392;50.078;13.704;2023-04-26T08:39:29;96979.59;;;6.81;55.32
56894;BME280;43392;50.078;13.704;2023-04-26T08:41:59;96992.41;;;6.57;57.64
56894;BME280;43392;50.078;13.704;2023-04-26T08:44:31;97015.22;;;6.48;57.78
56894;BME280;43392;50.078;13.704;2023-04-26T08:47:03;96996.56;;;6.48;57.53
56894;BME280;43392;50.078;13.704;2023-04-26T08:49:39;97003.31;;;6.13;56.54
56894;BME280;43392;50.078;13.704;2023-04-26T08:52:08;97002.06;;;6.20;58.19
56894;BME280;43392;50.078;13.704;2023-04-26T08:54:36;97005.91;;;6.29;57.91
56894;BME280;43392;50.078;13.704;2023-04-26T08:57:03;97004.22;;;6.23;56.93
56894;BME280;43392;50.078;13.704;2023-04-26T08:59:30;96999.41;;;6.42;56.60
56894;BME280;43392;50.078;13.704;2023-04-26T09:01:57;96991.47;;;6.68;56.99
56894;BME280;43392;50.078;13.704;2023-04-26T09:04:24;97001.41;;;6.51;56.23
56894;BME280;43392;50.078;13.704;2023-04-26T09:06:55;97007.09;;;6.60;55.44
56894;BME280;43392;50.078;13.704;2023-04-26T09:09:26;96998.28;;;6.59;53.48
56894;BME280;43392;50.078;13.704;2023-04-26T09:11:54;97003.31;;;6.78;53.45
56894;BME280;43392;50.078;13.704;2023-04-26T09:14:20;96998.88;;;6.88;52.99
56894;BME280;43392;50.078;13.704;2023-04-26T09:16:47;96994.59;;;6.87;53.20
56894;BME280;43392;50.078;13.704;2023-04-26T09:19:14;96991.13;;;7.13;53.17
56894;BME280;43392;50.078;13.704;2023-04-26T09:21:47;96996.13;;;7.68;52.61
56894;BME280;43392;50.078;13.704;2023-04-26T09:24:15;96999.44;;;7.49;46.76
56894;BME280;43392;50.078;13.704;2023-04-26T09:26:41;96992.97;;;7.40;47.46
56894;BME280;43392;50.078;13.704;2023-04-26T09:29:12;96985.72;;;7.35;46.47
56894;BME280;43392;50.078;13.704;2023-04-26T09:31:42;97001.00;;;7.45;48.46
56894;BME280;43392;50.078;13.704;2023-04-26T09:34:09;97001.13;;;7.28;47.56
56894;BME280;43392;50.078;13.704;2023-04-26T09:36:46;97003.44;;;7.14;47.95
56894;BME280;43392;50.078;13.704;2023-04-26T09:39:28;97000.13;;;7.07;47.89
56894;BME280;43392;50.078;13.704;2023-04-26T09:41:56;96996.47;;;7.13;48.16
56894;BME280;43392;50.078;13.704;2023-04-26T09:44:24;97003.63;;;7.40;46.64
56894;BME280;43392;50.078;13.704;2023-04-26T09:46:58;96992.72;;;7.41;48.75
56894;BME280;43392;50.078;13.704;2023-04-26T09:49:25;96991.91;;;7.72;47.90
56894;BME280;43392;50.078;13.704;2023-04-26T09:52:02;96989.91;;;7.94;48.77
56894;BME280;43392;50.078;13.704;2023-04-26T09:54:41;96995.16;;;7.79;48.57
56894;BME280;43392;50.078;13.704;2023-04-26T09:57:08;96992.53;;;7.84;47.53
56894;BME280;43392;50.078;13.704;2023-04-26T09:59:39;96991.56;;;8.00;46.50
56894;BME280;43392;50.078;13.704;2023-04-26T10:02:11;96993.41;;;8.00;47.67
56894;BME280;43392;50.078;13.704;2023-04-26T10:04:38;97005.44;;;7.66;47.37
56894;BME280;43392;50.078;13.704;2023-04-26T10:07:05;96993.00;;;7.45;47.22
56894;BME280;43392;50.078;13.704;2023-04-26T10:09:32;96987.16;;;7.79;48.81
56894;BME280;43392;50.078;13.704;2023-04-26T10:12:01;96992.44;;;7.74;47.56
56894;BME280;43392;50.078;13.704;2023-04-26T10:14:28;96991.78;;;7.57;47.83
56894;BME280;43392;50.078;13.704;2023-04-26T10:16:57;96993.16;;;8.01;47.24
56894;BME280;43392;50.078;13.704;2023-04-26T10:19:24;96983.75;;;8.36;45.66
56894;BME280;43392;50.078;13.704;2023-04-26T10:21:52;96976.56;;;8.41;44.25
56894;BME280;43392;50.078;13.704;2023-04-26T10:24:23;96983.22;;;8.39;45.89
56894;BME280;43392;50.078;13.704;2023-04-26T10:26:52;96983.56;;;8.47;44.57
56894;BME280;43392;50.078;13.704;2023-04-26T10:29:24;96982.56;;;8.22;44.71
56894;BME280;43392;50.078;13.704;2023-04-26T10:32:05;96982.06;;;8.25;45.42
56894;BME280;43392;50.078;13.704;2023-04-26T10:34:33;96987.91;;;8.17;47.16
56894;BME280;43392;50.078;13.704;2023-04-26T10:37:08;96980.97;;;7.74;46.42
56894;BME280;43392;50.078;13.704;2023-04-26T10:39:35;96974.91;;;7.88;46.71
56894;BME280;43392;50.078;13.704;2023-04-26T10:42:20;96978.31;;;8.21;46.90
56894;BME280;43392;50.078;13.704;2023-04-26T10:44:53;96974.53;;;8.17;45.49
56894;BME280;43392;50.078;13.704;2023-04-26T10:47:22;96969.84;;;8.34;45.70
56894;BME280;43392;50.078;13.704;2023-04-26T10:49:49;96975.25;;;8.49;46.24
56894;BME280;43392;50.078;13.704;2023-04-26T10:52:17;96971.00;;;8.58;46.22
56894;BME280;43392;50.078;13.704;2023-04-26T10:54:49;96961.09;;;8.48;45.86
56894;BME280;43392;50.078;13.704;2023-04-26T10:57:17;96972.19;;;8.25;45.29
56894;BME280;43392;50.078;13.704;2023-04-26T11:00:23;96964.66;;;8.69;45.35
56894;BME280;43392;50.078;13.704;2023-04-26T11:03:09;96958.88;;;9.22;43.90
56894;BME280;43392;50.078;13.704;2023-04-26T11:05:40;96968.22;;;9.40;43.34
56894;BME280;43392;50.078;13.704;2023-04-26T11:08:17;96956.19;;;9.32;43.99
56894;BME280;43392;50.078;13.704;2023-04-26T11:10:48;96950.28;;;9.25;45.32
56894;BME280;43392;50.078;13.704;2023-04-26T11:13:16;96952.97;;;9.30;43.00
56894;BME280;43392;50.078;13.704;2023-04-26T11:15:45;96953.25;;;9.24;41.68
56894;BME280;43392;50.078;13.704;2023-04-26T11:18:12;96944.69;;;9.17;40.73
56894;BME280;43392;50.078;13.704;2023-04-26T11:20:38;96950.84;;;9.12;41.35
56894;BME280;43392;50.078;13.704;2023-04-26T11:23:06;96950.31;;;9.10;42.39
56894;BME280;43392;50.078;13.704;2023-04-26T11:25:33;96941.16;;;8.96;42.15
56894;BME280;43392;50.078;13.704;2023-04-26T11:28:00;96946.78;;;8.90;45.00
56894;BME280;43392;50.078;13.704;2023-04-26T11:30:28;96948.03;;;8.52;44.77
56894;BME280;43392;50.078;13.704;2023-04-26T11:32:57;96966.69;;;8.42;45.11
56894;BME280;43392;50.078;13.704;2023-04-26T11:35:24;96961.41;;;8.57;45.52
56894;BME280;43392;50.078;13.704;2023-04-26T11:37:51;96964.00;;;8.37;45.35
56894;BME280;43392;50.078;13.704;2023-04-26T11:40:18;96969.06;;;7.91;45.36
56894;BME280;43392;50.078;13.704;2023-04-26T11:42:45;96967.22;;;7.92;45.78
56894;BME280;43392;50.078;13.704;2023-04-26T11:45:14;96970.06;;;7.80;45.77
56894;BME280;43392;50.078;13.704;2023-04-26T11:47:42;96960.00;;;7.97;46.31
56894;BME280;43392;50.078;13.704;2023-04-26T11:50:11;96966.72;;;8.52;46.06
56894;BME280;43392;50.078;13.704;2023-04-26T11:52:38;96963.03;;;8.68;44.84
56894;BME280;43392;50.078;13.704;2023-04-26T11:55:06;96956.34;;;8.71;43.88
56894;BME280;43392;50.078;13.704;2023-04-26T11:57:33;96956.38;;;8.81;44.20
56894;BME280;43392;50.078;13.704;2023-04-26T12:00:08;96950.81;;;9.02;44.48
56894;BME280;43392;50.078;13.704;2023-04-26T12:02:36;96960.72;;;9.12;44.22
56894;BME280;43392;50.078;13.704;2023-04-26T12:05:03;96961.25;;;9.19;44.32
56894;BME280;43392;50.078;13.704;2023-04-26T12:07:35;96958.88;;;9.22;43.86
56894;BME280;43392;50.078;13.704;2023-04-26T12:10:16;96958.06;;;9.72;44.52
56894;BME280;43392;50.078;13.704;2023-04-26T12:12:44;96955.59;;;10.01;44.20
56894;BME280;43392;50.078;13.704;2023-04-26T12:15:13;96948.91;;;10.14;39.27
56894;BME280;43392;50.078;13.704;2023-04-26T12:17:39;96946.47;;;10.07;39.42
56894;BME280;43392;50.078;13.704;2023-04-26T12:20:10;96960.13;;;10.06;43.15
56894;BME280;43392;50.078;13.704;2023-04-26T12:22:38;96965.75;;;10.09;42.29
56894;BME280;43392;50.078;13.704;2023-04-26T12:25:06;96947.47;;;10.41;42.25
56894;BME280;43392;50.078;13.704;2023-04-26T12:27:32;96947.31;;;10.72;42.05
56894;BME280;43392;50.078;13.704;2023-04-26T12:29:59;96946.19;;;10.83;42.56
56894;BME280;43392;50.078;13.704;2023-04-26T12:32:26;96949.56;;;10.49;42.92
56894;BME280;43392;50.078;13.704;2023-04-26T12:34:52;96956.09;;;10.08;42.80
56894;BME280;43392;50.078;13.704;2023-04-26T12:37:19;96963.69;;;9.81;43.42
56894;BME280;43392;50.078;13.704;2023-04-26T12:39:47;96961.25;;;9.89;44.15
56894;BME280;43392;50.078;13.704;2023-04-26T12:42:13;96956.13;;;9.98;43.22
56894;BME280;43392;50.078;13.704;2023-04-26T12:44:40;96958.56;;;9.89;43.11
56894;BME280;43392;50.078;13.704;2023-04-26T12:47:06;96959.94;;;9.52;42.87
56894;BME280;43392;50.078;13.704;2023-04-26T12:49:33;96956.72;;;9.29;43.58
56894;BME280;43392;50.078;13.704;2023-04-26T12:51:59;96965.81;;;9.23;42.33
56894;BME280;43392;50.078;13.704;2023-04-26T12:54:26;96958.06;;;9.17;44.12
56894;BME280;43392;50.078;13.704;2023-04-26T12:56:54;96948.72;;;9.40;41.84
56894;BME280;43392;50.078;13.704;2023-04-26T12:59:21;96954.03;;;9.55;41.36
56894;BME280;43392;50.078;13.704;2023-04-26T13:01:47;96944.94;;;9.71;43.09
56894;BME280;43392;50.078;13.704;2023-04-26T13:04:14;96940.09;;;9.83;41.52